sensor_id;sensor_type;location;lat;lon;timestamp;pressure;altitude;pressure_sealevel;temperature;humidity
6024;BME280;3040;42.654;23.296;2023-05-24T00:02:07;94056.13;;;16.55;67.84
6024;BME280;3040;42.654;23.296;2023-05-24T00:04:35;94065.78;;;16.63;67.29
6024;BME280;3040;42.654;23.296;2023-05-24T00:07:02;94061.56;;;16.62;67.66
6024;BME280;3040;42.654;23.296;2023-05-24T00:09:29;94060.81;;;16.69;66.94
6024;BME280;3040;42.654;23.296;2023-05-24T00:11:56;94063.09;;;16.63;66.59
6024;BME280;3040;42.654;23.296;2023-05-24T00:14:23;94056.56;;;16.68;66.92
6024;BME280;3040;42.654;23.296;2023-05-24T00:16:50;94054.66;;;16.68;66.94
6024;BME280;3040;42.654;23.296;2023-05-24T00:19:18;94069.25;;;16.75;66.77
6024;BME280;3040;42.654;23.296;2023-05-24T00:21:46;94062.34;;;16.74;66.73
6024;BME280;3040;42.654;23.296;2023-05-24T00:24:14;94057.31;;;16.65;67.06
6024;BME280;3040;42.654;23.296;2023-05-24T00:26:42;94064.50;;;16.47;67.40
6024;BME280;3040;42.654;23.296;2023-05-24T00:29:09;94062.19;;;16.38;67.76
6024;BME280;3040;42.654;23.296;2023-05-24T00:31:36;94054.50;;;16.33;68.14
6024;BME280;3040;42.654;23.296;2023-05-24T00:34:02;94037.94;;;16.17;68.08
6024;BME280;3040;42.654;23.296;2023-05-24T00:36:31;94024.50;;;16.10;68.20
6024;BME280;3040;42.654;23.296;2023-05-24T00:38:58;94055.75;;;15.81;70.89
6024;BME280;3040;42.654;23.296;2023-05-24T00:41:25;94044.00;;;15.41;72.22
6024;BME280;3040;42.654;23.296;2023-05-24T00:43:52;94058.59;;;15.51;72.54
6024;BME280;3040;42.654;23.296;2023-05-24T00:46:20;94025.59;;;15.40;72.17
6024;BME280;3040;42.654;23.296;2023-05-24T00:48:48;94047.50;;;15.49;73.05
6024;BME280;3040;42.654;23.296;2023-05-24T00:51:17;94046.47;;;15.64;71.06
6024;BME280;3040;42.654;23.296;2023-05-24T00:53:46;94052.56;;;15.61;71.29
6024;BME280;3040;42.654;23.296;2023-05-24T00:56:14;94057.97;;;15.68;71.02
6024;BME280;3040;42.654;23.296;2023-05-24T00:58:42;94048.00;;;15.65;70.89
6024;BME280;3040;42.654;23.296;2023-05-24T01:01:09;93950.75;;;15.10;69.89
6024;BME280;3040;42.654;23.296;2023-05-24T01:03:36;94056.16;;;15.83;69.79
6024;BME280;3040;42.654;23.296;2023-05-24T01:06:05;94052.72;;;15.86;69.72
6024;BME280;3040;42.654;23.296;2023-05-24T01:08:42;94061.06;;;15.70;70.09
6024;BME280;3040;42.654;23.296;2023-05-24T01:11:20;94054.88;;;15.59;70.93
6024;BME280;3040;42.654;23.296;2023-05-24T01:13:57;94031.75;;;15.44;70.97
6024;BME280;3040;42.654;23.296;2023-05-24T01:16:31;94054.09;;;15.62;71.35
6024;BME280;3040;42.654;23.296;2023-05-24T01:19:09;94059.53;;;15.69;71.31
6024;BME280;3040;42.654;23.296;2023-05-24T01:21:49;94054.22;;;15.76;70.73
6024;BME280;3040;42.654;23.296;2023-05-24T01:24:24;94070.34;;;15.83;70.53
6024;BME280;3040;42.654;23.296;2023-05-24T01:27:04;94060.41;;;15.87;69.48
6024;BME280;3040;42.654;23.296;2023-05-24T01:29:33;94056.56;;;15.85;68.73
6024;BME280;3040;42.654;23.296;2023-05-24T01:32:01;93935.75;;;14.98;69.84
6024;BME280;3040;42.654;23.296;2023-05-24T01:34:28;94067.22;;;15.74;69.82
6024;BME280;3040;42.654;23.296;2023-05-24T01:36:55;94066.84;;;15.76;69.79
6024;BME280;3040;42.654;23.296;2023-05-24T01:39:25;94077.97;;;15.81;69.81
6024;BME280;3040;42.654;23.296;2023-05-24T01:42:01;94034.84;;;15.49;69.59
6024;BME280;3040;42.654;23.296;2023-05-24T01:44:36;94071.63;;;15.49;70.60
6024;BME280;3040;42.654;23.296;2023-05-24T01:47:24;94065.28;;;15.24;71.27
6024;BME280;3040;42.654;23.296;2023-05-24T01:49:57;93968.78;;;14.36;71.95
6024;BME280;3040;42.654;23.296;2023-05-24T01:52:28;94046.47;;;14.76;72.78
6024;BME280;3040;42.654;23.296;2023-05-24T01:54:57;94071.97;;;15.03;72.43
6024;BME280;3040;42.654;23.296;2023-05-24T01:57:25;94064.44;;;15.13;71.90
6024;BME280;3040;42.654;23.296;2023-05-24T01:59:56;94065.56;;;15.12;71.64
6024;BME280;3040;42.654;23.296;2023-05-24T02:02:24;94058.25;;;15.08;72.51
6024;BME280;3040;42.654;23.296;2023-05-24T02:04:51;94059.72;;;15.02;73.47
6024;BME280;3040;42.654;23.296;2023-05-24T02:07:18;94055.91;;;15.03;73.30
6024;BME280;3040;42.654;23.296;2023-05-24T02:09:44;94044.69;;;14.87;73.27
6024;BME280;3040;42.654;23.296;2023-05-24T02:12:11;94055.97;;;15.11;72.10
6024;BME280;3040;42.654;23.296;2023-05-24T02:14:38;94053.03;;;15.23;71.38
6024;BME280;3040;42.654;23.296;2023-05-24T02:17:08;94020.03;;;15.12;71.69
6024;BME280;3040;42.654;23.296;2023-05-24T02:19:35;94053.47;;;15.32;70.53
6024;BME280;3040;42.654;23.296;2023-05-24T02:22:02;94053.47;;;15.32;69.67
6024;BME280;3040;42.654;23.296;2023-05-24T02:24:29;94051.88;;;15.24;71.05
6024;BME280;3040;42.654;23.296;2023-05-24T02:26:56;94055.19;;;15.06;71.18
6024;BME280;3040;42.654;23.296;2023-05-24T02:29:22;94052.63;;;14.77;72.51
6024;BME280;3040;42.654;23.296;2023-05-24T02:31:49;94053.94;;;14.60;72.96
6024;BME280;3040;42.654;23.296;2023-05-24T02:34:22;94048.16;;;14.24;74.97
6024;BME280;3040;42.654;23.296;2023-05-24T02:36:50;94029.50;;;14.28;75.70
6024;BME280;3040;42.654;23.296;2023-05-24T02:39:18;94015.59;;;14.15;75.38
6024;BME280;3040;42.654;23.296;2023-05-24T02:41:45;94035.59;;;14.58;74.51
6024;BME280;3040;42.654;23.296;2023-05-24T02:44:12;94044.78;;;14.61;74.25
6024;BME280;3040;42.654;23.296;2023-05-24T02:46:39;94053.69;;;14.72;73.38
6024;BME280;3040;42.654;23.296;2023-05-24T02:49:06;94051.84;;;14.76;71.88
6024;BME280;3040;42.654;23.296;2023-05-24T02:51:35;94053.06;;;14.86;71.67
6024;BME280;3040;42.654;23.296;2023-05-24T02:54:02;94043.81;;;14.76;71.47
6024;BME280;3040;42.654;23.296;2023-05-24T02:56:30;94045.44;;;14.51;73.74
6024;BME280;3040;42.654;23.296;2023-05-24T02:58:57;93947.06;;;13.40;75.10
6024;BME280;3040;42.654;23.296;2023-05-24T03:01:23;94058.09;;;14.24;75.05
6024;BME280;3040;42.654;23.296;2023-05-24T03:03:50;94060.50;;;14.33;74.65
6024;BME280;3040;42.654;23.296;2023-05-24T03:06:17;94056.16;;;14.51;75.52
6024;BME280;3040;42.654;23.296;2023-05-24T03:08:45;94060.13;;;14.64;73.45
6024;BME280;3040;42.654;23.296;2023-05-24T03:11:13;94062.53;;;14.76;72.44
6024;BME280;3040;42.654;23.296;2023-05-24T03:13:40;94078.72;;;14.87;71.93
6024;BME280;3040;42.654;23.296;2023-05-24T03:16:07;94064.19;;;14.88;71.57
6024;BME280;3040;42.654;23.296;2023-05-24T03:18:34;94065.78;;;14.96;72.58
6024;BME280;3040;42.654;23.296;2023-05-24T03:21:01;94063.22;;;15.06;71.55
6024;BME280;3040;42.654;23.296;2023-05-24T03:23:27;94061.41;;;15.18;70.67
6024;BME280;3040;42.654;23.296;2023-05-24T03:25:56;94064.94;;;15.29;70.37
6024;BME280;3040;42.654;23.296;2023-05-24T03:28:23;94068.47;;;15.40;69.88
6024;BME280;3040;42.654;23.296;2023-05-24T03:30:49;94076.25;;;15.52;70.28
6024;BME280;3040;42.654;23.296;2023-05-24T03:33:16;94073.63;;;15.59;70.18
6024;BME280;3040;42.654;23.296;2023-05-24T03:35:43;94074.81;;;15.65;69.99
6024;BME280;3040;42.654;23.296;2023-05-24T03:38:10;94082.09;;;15.65;70.29
6024;BME280;3040;42.654;23.296;2023-05-24T03:40:37;94084.78;;;15.65;70.80
6024;BME280;3040;42.654;23.296;2023-05-24T03:43:05;94091.63;;;15.62;70.40
6024;BME280;3040;42.654;23.296;2023-05-24T03:45:32;94082.44;;;15.63;69.92
6024;BME280;3040;42.654;23.296;2023-05-24T03:47:59;94080.97;;;15.69;69.96
6024;BME280;3040;42.654;23.296;2023-05-24T03:50:25;94084.59;;;15.47;70.81
6024;BME280;3040;42.654;23.296;2023-05-24T03:52:52;94071.94;;;15.44;70.81
6024;BME280;3040;42.654;23.296;2023-05-24T03:55:19;94068.53;;;15.47;71.21
6024;BME280;3040;42.654;23.296;2023-05-24T03:57:46;94074.41;;;15.63;70.89
6024;BME280;3040;42.654;23.296;2023-05-24T04:00:15;94081.44;;;15.78;70.59
6024;BME280;3040;42.654;23.296;2023-05-24T04:02:41;94087.28;;;15.98;70.25
6024;BME280;3040;42.654;23.296;2023-05-24T04:05:09;94075.13;;;16.15;69.97
6024;BME280;3040;42.654;23.296;2023-05-24T04:07:36;94084.41;;;16.32;71.19
6024;BME280;3040;42.654;23.296;2023-05-24T04:10:04;94083.31;;;16.43;70.78
6024;BME280;3040;42.654;23.296;2023-05-24T04:12:31;93993.00;;;15.93;69.94
6024;BME280;3040;42.654;23.296;2023-05-24T04:14:59;94086.13;;;16.68;68.49
6024;BME280;3040;42.654;23.296;2023-05-24T04:17:27;94053.34;;;16.34;69.77
6024;BME280;3040;42.654;23.296;2023-05-24T04:19:59;94090.56;;;16.36;71.14
6024;BME280;3040;42.654;23.296;2023-05-24T04:22:25;94084.47;;;16.53;70.03
6024;BME280;3040;42.654;23.296;2023-05-24T04:24:52;94086.13;;;16.72;71.04
6024;BME280;3040;42.654;23.296;2023-05-24T04:27:19;94083.47;;;16.86;70.95
6024;BME280;3040;42.654;23.296;2023-05-24T04:29:46;94082.75;;;17.06;69.68
6024;BME280;3040;42.654;23.296;2023-05-24T04:32:15;94090.84;;;17.24;68.66
6024;BME280;3040;42.654;23.296;2023-05-24T04:34:44;94095.84;;;17.36;68.00
6024;BME280;3040;42.654;23.296;2023-05-24T04:37:11;94074.75;;;17.35;68.11
6024;BME280;3040;42.654;23.296;2023-05-24T04:39:42;94092.41;;;17.50;66.98
6024;BME280;3040;42.654;23.296;2023-05-24T04:42:09;94108.50;;;17.11;67.88
6024;BME280;3040;42.654;23.296;2023-05-24T04:44:36;94103.91;;;17.22;67.87
6024;BME280;3040;42.654;23.296;2023-05-24T04:47:05;94112.34;;;17.38;66.96
6024;BME280;3040;42.654;23.296;2023-05-24T04:49:31;94116.22;;;17.52;66.84
6024;BME280;3040;42.654;23.296;2023-05-24T04:52:00;94122.34;;;17.48;66.71
6024;BME280;3040;42.654;23.296;2023-05-24T04:54:27;94116.25;;;17.66;66.97
6024;BME280;3040;42.654;23.296;2023-05-24T04:56:53;94118.56;;;17.81;65.80
6024;BME280;3040;42.654;23.296;2023-05-24T04:59:20;94115.47;;;17.90;65.17
6024;BME280;3040;42.654;23.296;2023-05-24T05:01:47;94123.94;;;17.96;65.69
6024;BME280;3040;42.654;23.296;2023-05-24T05:04:14;94118.53;;;18.06;66.18
6024;BME280;3040;42.654;23.296;2023-05-24T05:06:41;94117.75;;;18.16;65.09
6024;BME280;3040;42.654;23.296;2023-05-24T05:09:10;94118.50;;;18.24;65.23
6024;BME280;3040;42.654;23.296;2023-05-24T05:11:38;94116.94;;;18.26;65.23
6024;BME280;3040;42.654;23.296;2023-05-24T05:14:05;94112.31;;;18.38;65.60
6024;BME280;3040;42.654;23.296;2023-05-24T05:16:34;94120.75;;;18.43;65.73
6024;BME280;3040;42.654;23.296;2023-05-24T05:19:01;94120.72;;;18.54;65.48
6024;BME280;3040;42.654;23.296;2023-05-24T05:21:29;94114.94;;;18.52;64.87
6024;BME280;3040;42.654;23.296;2023-05-24T05:23:57;94126.09;;;18.68;64.67
6024;BME280;3040;42.654;23.296;2023-05-24T05:26:25;94128.38;;;18.73;63.58
6024;BME280;3040;42.654;23.296;2023-05-24T05:28:52;94129.88;;;18.81;63.34
6024;BME280;3040;42.654;23.296;2023-05-24T05:31:20;94133.69;;;18.87;63.16
6024;BME280;3040;42.654;23.296;2023-05-24T05:33:47;94134.47;;;18.91;62.64
6024;BME280;3040;42.654;23.296;2023-05-24T05:36:13;94106.81;;;18.80;62.36
6024;BME280;3040;42.654;23.296;2023-05-24T05:38:41;94135.19;;;19.02;61.43
6024;BME280;3040;42.654;23.296;2023-05-24T05:41:07;94135.34;;;18.67;63.11
6024;BME280;3040;42.654;23.296;2023-05-24T05:43:37;94131.41;;;18.82;63.32
6024;BME280;3040;42.654;23.296;2023-05-24T05:46:04;94136.44;;;18.80;62.44
6024;BME280;3040;42.654;23.296;2023-05-24T05:48:31;94134.53;;;18.77;61.70
6024;BME280;3040;42.654;23.296;2023-05-24T05:50:57;94131.47;;;18.72;62.33
6024;BME280;3040;42.654;23.296;2023-05-24T05:53:24;94136.75;;;18.93;62.07
6024;BME280;3040;42.654;23.296;2023-05-24T05:55:51;94136.31;;;19.05;62.65
6024;BME280;3040;42.654;23.296;2023-05-24T05:58:18;94133.66;;;18.94;61.20
6024;BME280;3040;42.654;23.296;2023-05-24T06:00:46;94122.91;;;18.87;61.64
6024;BME280;3040;42.654;23.296;2023-05-24T06:03:13;94139.41;;;19.10;61.84
6024;BME280;3040;42.654;23.296;2023-05-24T06:05:40;94143.91;;;19.28;60.94
6024;BME280;3040;42.654;23.296;2023-05-24T06:08:07;94146.56;;;19.35;60.47
6024;BME280;3040;42.654;23.296;2023-05-24T06:10:34;94138.97;;;19.16;61.58
6024;BME280;3040;42.654;23.296;2023-05-24T06:13:02;94152.72;;;19.39;61.06
6024;BME280;3040;42.654;23.296;2023-05-24T06:15:29;94141.13;;;19.45;59.79
6024;BME280;3040;42.654;23.296;2023-05-24T06:17:59;94151.84;;;19.56;59.59
6024;BME280;3040;42.654;23.296;2023-05-24T06:20:26;94148.00;;;19.57;58.97
6024;BME280;3040;42.654;23.296;2023-05-24T06:22:53;94146.28;;;19.81;58.86
6024;BME280;3040;42.654;23.296;2023-05-24T06:25:20;94150.38;;;20.00;57.22
6024;BME280;3040;42.654;23.296;2023-05-24T06:27:48;94147.91;;;20.16;58.02
6024;BME280;3040;42.654;23.296;2023-05-24T06:30:16;94137.44;;;20.25;57.04
6024;BME280;3040;42.654;23.296;2023-05-24T06:32:42;94144.19;;;20.44;55.72
6024;BME280;3040;42.654;23.296;2023-05-24T06:35:11;94140.94;;;20.59;54.90
6024;BME280;3040;42.654;23.296;2023-05-24T06:37:38;94137.72;;;20.71;53.97
6024;BME280;3040;42.654;23.296;2023-05-24T06:40:06;94124.91;;;20.79;53.52
6024;BME280;3040;42.654;23.296;2023-05-24T06:42:34;94140.78;;;21.07;52.75
6024;BME280;3040;42.654;23.296;2023-05-24T06:45:01;94135.63;;;21.20;52.20
6024;BME280;3040;42.654;23.296;2023-05-24T06:47:28;94141.59;;;21.35;50.39
6024;BME280;3040;42.654;23.296;2023-05-24T06:49:54;94042.28;;;20.48;49.35
6024;BME280;3040;42.654;23.296;2023-05-24T06:52:23;94143.19;;;21.32;50.78
6024;BME280;3040;42.654;23.296;2023-05-24T06:54:50;94122.97;;;21.40;50.26
6024;BME280;3040;42.654;23.296;2023-05-24T06:57:19;94131.16;;;21.64;48.54
6024;BME280;3040;42.654;23.296;2023-05-24T06:59:46;94135.84;;;21.83;48.76
6024;BME280;3040;42.654;23.296;2023-05-24T07:02:13;94030.28;;;21.36;50.25
6024;BME280;3040;42.654;23.296;2023-05-24T07:04:40;94134.50;;;22.21;51.30
6024;BME280;3040;42.654;23.296;2023-05-24T07:07:08;94138.53;;;22.33;50.95
6024;BME280;3040;42.654;23.296;2023-05-24T07:09:39;94124.66;;;22.51;50.91
6024;BME280;3040;42.654;23.296;2023-05-24T07:12:06;94131.59;;;22.75;50.37
6024;BME280;3040;42.654;23.296;2023-05-24T07:14:33;94140.41;;;22.79;50.35
6024;BME280;3040;42.654;23.296;2023-05-24T07:17:00;94146.63;;;22.99;49.48
6024;BME280;3040;42.654;23.296;2023-05-24T07:19:27;94139.72;;;23.15;50.11
6024;BME280;3040;42.654;23.296;2023-05-24T07:21:54;94139.09;;;23.27;48.49
6024;BME280;3040;42.654;23.296;2023-05-24T07:24:21;94136.81;;;23.05;46.82
6024;BME280;3040;42.654;23.296;2023-05-24T07:26:50;94142.44;;;23.15;47.03
6024;BME280;3040;42.654;23.296;2023-05-24T07:29:17;94137.88;;;22.72;48.82
6024;BME280;3040;42.654;23.296;2023-05-24T07:31:44;94140.72;;;22.42;50.53
6024;BME280;3040;42.654;23.296;2023-05-24T07:34:10;94144.66;;;22.80;50.87
6024;BME280;3040;42.654;23.296;2023-05-24T07:36:37;94146.84;;;22.46;48.62
6024;BME280;3040;42.654;23.296;2023-05-24T07:39:05;94150.38;;;22.86;49.13
6024;BME280;3040;42.654;23.296;2023-05-24T07:41:34;94149.72;;;23.18;48.19
6024;BME280;3040;42.654;23.296;2023-05-24T07:44:03;94134.53;;;23.40;47.71
6024;BME280;3040;42.654;23.296;2023-05-24T07:46:30;94074.53;;;23.18;47.90
6024;BME280;3040;42.654;23.296;2023-05-24T07:48:57;94152.28;;;23.97;46.29
6024;BME280;3040;42.654;23.296;2023-05-24T07:51:24;94141.75;;;24.15;45.34
6024;BME280;3040;42.654;23.296;2023-05-24T07:53:51;94142.78;;;24.21;45.23
6024;BME280;3040;42.654;23.296;2023-05-24T07:56:18;94140.97;;;24.30;44.84
6024;BME280;3040;42.654;23.296;2023-05-24T07:58:45;94135.44;;;24.50;44.62
6024;BME280;3040;42.654;23.296;2023-05-24T08:01:14;94109.47;;;24.62;44.39
6024;BME280;3040;42.654;23.296;2023-05-24T08:03:42;94130.75;;;24.80;43.76
6024;BME280;3040;42.654;23.296;2023-05-24T08:06:10;94135.84;;;24.78;43.34
6024;BME280;3040;42.654;23.296;2023-05-24T08:08:38;94128.00;;;24.96;42.86
6024;BME280;3040;42.654;23.296;2023-05-24T08:11:05;94117.81;;;25.00;44.22
6024;BME280;3040;42.654;23.296;2023-05-24T08:13:32;94123.75;;;24.21;41.46
6024;BME280;3040;42.654;23.296;2023-05-24T08:16:00;94132.31;;;24.36;42.33
6024;BME280;3040;42.654;23.296;2023-05-24T08:18:29;94131.03;;;24.40;40.86
6024;BME280;3040;42.654;23.296;2023-05-24T08:20:56;94124.44;;;24.25;40.84
6024;BME280;3040;42.654;23.296;2023-05-24T08:23:23;94132.38;;;24.48;44.08
6024;BME280;3040;42.654;23.296;2023-05-24T08:25:49;94128.69;;;24.71;43.31
6024;BME280;3040;42.654;23.296;2023-05-24T08:28:17;94127.81;;;25.03;42.27
6024;BME280;3040;42.654;23.296;2023-05-24T08:30:44;94131.13;;;25.23;41.35
6024;BME280;3040;42.654;23.296;2023-05-24T08:33:11;94134.28;;;25.22;39.77
6024;BME280;3040;42.654;23.296;2023-05-24T08:35:40;94129.19;;;25.36;39.40
6024;BME280;3040;42.654;23.296;2023-05-24T08:38:08;94117.75;;;25.41;37.67
6024;BME280;3040;42.654;23.296;2023-05-24T08:40:34;94130.47;;;25.44;36.72
6024;BME280;3040;42.654;23.296;2023-05-24T08:43:01;94123.56;;;25.69;37.69
6024;BME280;3040;42.654;23.296;2023-05-24T08:45:29;94121.50;;;25.85;38.04
6024;BME280;3040;42.654;23.296;2023-05-24T08:47:57;94126.78;;;26.14;36.34
6024;BME280;3040;42.654;23.296;2023-05-24T08:50:25;94130.28;;;26.27;37.08
6024;BME280;3040;42.654;23.296;2023-05-24T08:52:53;94133.38;;;26.51;35.21
6024;BME280;3040;42.654;23.296;2023-05-24T08:55:21;94122.22;;;26.80;34.02
6024;BME280;3040;42.654;23.296;2023-05-24T08:57:48;94127.28;;;27.03;32.58
6024;BME280;3040;42.654;23.296;2023-05-24T09:00:16;94121.88;;;27.12;33.14
6024;BME280;3040;42.654;23.296;2023-05-24T09:02:44;94116.44;;;27.12;33.02
6024;BME280;3040;42.654;23.296;2023-05-24T09:05:13;94132.88;;;27.00;32.48
6024;BME280;3040;42.654;23.296;2023-05-24T09:07:42;94122.66;;;26.91;31.90
6024;BME280;3040;42.654;23.296;2023-05-24T09:10:11;94116.09;;;27.10;30.74
6024;BME280;3040;42.654;23.296;2023-05-24T09:12:39;94117.78;;;26.52;31.64
6024;BME280;3040;42.654;23.296;2023-05-24T09:15:09;94119.19;;;26.78;31.19
6024;BME280;3040;42.654;23.296;2023-05-24T09:17:37;94128.47;;;27.24;31.00
6024;BME280;3040;42.654;23.296;2023-05-24T09:20:06;94116.78;;;27.24;29.70
6024;BME280;3040;42.654;23.296;2023-05-24T09:22:34;94119.63;;;27.42;30.09
6024;BME280;3040;42.654;23.296;2023-05-24T09:25:02;94127.22;;;26.94;30.73
6024;BME280;3040;42.654;23.296;2023-05-24T09:27:32;94123.84;;;27.12;30.49
6024;BME280;3040;42.654;23.296;2023-05-24T09:29:59;94005.88;;;26.43;28.46
6024;BME280;3040;42.654;23.296;2023-05-24T09:32:30;94115.97;;;27.45;30.04
6024;BME280;3040;42.654;23.296;2023-05-24T09:34:57;94129.00;;;27.10;27.74
6024;BME280;3040;42.654;23.296;2023-05-24T09:37:25;94002.66;;;25.88;30.08
6024;BME280;3040;42.654;23.296;2023-05-24T09:39:53;94124.47;;;26.38;30.57
6024;BME280;3040;42.654;23.296;2023-05-24T09:42:23;94116.22;;;26.04;30.82
6024;BME280;3040;42.654;23.296;2023-05-24T09:45:01;94112.19;;;26.08;31.15
6024;BME280;3040;42.654;23.296;2023-05-24T09:47:29;94108.66;;;26.20;30.43
6024;BME280;3040;42.654;23.296;2023-05-24T09:49:57;94104.00;;;26.08;31.47
6024;BME280;3040;42.654;23.296;2023-05-24T09:52:24;94106.59;;;26.59;30.01
6024;BME280;3040;42.654;23.296;2023-05-24T09:54:51;94117.63;;;26.90;29.73
6024;BME280;3040;42.654;23.296;2023-05-24T09:57:18;94111.31;;;26.80;29.14
6024;BME280;3040;42.654;23.296;2023-05-24T09:59:47;94117.72;;;26.86;28.64
6024;BME280;3040;42.654;23.296;2023-05-24T10:02:16;94106.75;;;27.21;29.94
6024;BME280;3040;42.654;23.296;2023-05-24T10:04:45;94086.38;;;27.43;27.37
6024;BME280;3040;42.654;23.296;2023-05-24T10:07:13;94093.41;;;27.23;29.09
6024;BME280;3040;42.654;23.296;2023-05-24T10:09:41;94060.81;;;27.28;28.98
6024;BME280;3040;42.654;23.296;2023-05-24T10:12:10;94100.34;;;28.25;28.56
6024;BME280;3040;42.654;23.296;2023-05-24T10:14:37;94099.59;;;28.70;27.87
6024;BME280;3040;42.654;23.296;2023-05-24T10:17:05;94098.53;;;29.13;27.78
6024;BME280;3040;42.654;23.296;2023-05-24T10:19:34;94104.38;;;29.58;25.95
6024;BME280;3040;42.654;23.296;2023-05-24T10:22:05;94096.31;;;29.87;25.43
6024;BME280;3040;42.654;23.296;2023-05-24T10:24:37;94099.19;;;29.60;25.71
6024;BME280;3040;42.654;23.296;2023-05-24T10:27:09;94099.84;;;29.87;25.93
6024;BME280;3040;42.654;23.296;2023-05-24T10:29:45;94093.53;;;29.03;27.88
6024;BME280;3040;42.654;23.296;2023-05-24T10:32:17;94095.94;;;29.19;24.99
6024;BME280;3040;42.654;23.296;2023-05-24T10:34:46;94104.63;;;28.54;25.60
6024;BME280;3040;42.654;23.296;2023-05-24T10:37:16;94099.91;;;28.27;25.25
6024;BME280;3040;42.654;23.296;2023-05-24T10:39:43;94083.13;;;28.07;25.55
6024;BME280;3040;42.654;23.296;2023-05-24T10:42:11;94075.63;;;28.75;25.04
6024;BME280;3040;42.654;23.296;2023-05-24T10:44:38;94074.63;;;29.14;24.52
6024;BME280;3040;42.654;23.296;2023-05-24T10:47:09;94077.50;;;29.20;25.03
6024;BME280;3040;42.654;23.296;2023-05-24T10:49:36;94048.47;;;29.13;23.61
6024;BME280;3040;42.654;23.296;2023-05-24T10:52:09;94077.44;;;28.78;24.77
6024;BME280;3040;42.654;23.296;2023-05-24T10:54:38;94063.13;;;28.55;24.66
6024;BME280;3040;42.654;23.296;2023-05-24T10:57:05;94041.09;;;28.86;23.51
6024;BME280;3040;42.654;23.296;2023-05-24T10:59:34;93967.25;;;28.31;24.33
6024;BME280;3040;42.654;23.296;2023-05-24T11:02:05;94059.72;;;29.15;26.46
6024;BME280;3040;42.654;23.296;2023-05-24T11:04:38;94072.41;;;29.54;25.35
6024;BME280;3040;42.654;23.296;2023-05-24T11:07:09;94057.84;;;29.39;24.10
6024;BME280;3040;42.654;23.296;2023-05-24T11:09:36;93981.34;;;28.48;25.26
6024;BME280;3040;42.654;23.296;2023-05-24T11:12:13;94054.03;;;29.37;24.54
6024;BME280;3040;42.654;23.296;2023-05-24T11:14:46;94026.53;;;29.64;24.71
6024;BME280;3040;42.654;23.296;2023-05-24T11:17:13;94051.50;;;29.90;25.10
6024;BME280;3040;42.654;23.296;2023-05-24T11:19:45;94056.59;;;29.82;23.27
6024;BME280;3040;42.654;23.296;2023-05-24T11:22:14;94056.94;;;29.24;24.33
6024;BME280;3040;42.654;23.296;2023-05-24T11:24:41;94047.88;;;29.00;24.71
6024;BME280;3040;42.654;23.296;2023-05-24T11:27:10;94048.44;;;29.22;25.26
6024;BME280;3040;42.654;23.296;2023-05-24T11:29:40;94049.84;;;29.08;25.45
6024;BME280;3040;42.654;23.296;2023-05-24T11:32:08;94046.25;;;29.44;24.15
6024;BME280;3040;42.654;23.296;2023-05-24T11:34:35;94045.22;;;29.75;24.68
6024;BME280;3040;42.654;23.296;2023-05-24T11:37:02;94041.97;;;30.09;24.72
6024;BME280;3040;42.654;23.296;2023-05-24T11:39:34;94047.94;;;30.55;23.64
6024;BME280;3040;42.654;23.296;2023-05-24T11:42:03;94044.66;;;30.18;24.01
6024;BME280;3040;42.654;23.296;2023-05-24T11:44:31;94047.63;;;30.29;24.59
6024;BME280;3040;42.654;23.296;2023-05-24T11:46:59;94028.22;;;29.85;24.18
6024;BME280;3040;42.654;23.296;2023-05-24T11:49:27;94026.31;;;29.77;23.81
6024;BME280;3040;42.654;23.296;2023-05-24T11:51:54;94026.91;;;29.81;23.78
6024;BME280;3040;42.654;23.296;2023-05-24T11:54:22;94026.81;;;29.99;25.29
6024;BME280;3040;42.654;23.296;2023-05-24T11:56:51;94031.00;;;30.09;24.85
6024;BME280;3040;42.654;23.296;2023-05-24T11:59:22;93975.94;;;29.98;23.89
6024;BME280;3040;42.654;23.296;2023-05-24T12:01:55;94019.63;;;30.49;24.85
6024;BME280;3040;42.654;23.296;2023-05-24T12:04:23;94013.75;;;30.71;24.83
6024;BME280;3040;42.654;23.296;2023-05-24T12:06:50;94016.69;;;29.81;25.49
6024;BME280;3040;42.654;23.296;2023-05-24T12:09:17;94004.16;;;29.66;24.17
6024;BME280;3040;42.654;23.296;2023-05-24T12:11:46;94015.56;;;30.36;24.64
6024;BME280;3040;42.654;23.296;2023-05-24T12:14:17;94025.31;;;30.75;24.00
6024;BME280;3040;42.654;23.296;2023-05-24T12:16:45;94001.75;;;31.27;23.66
6024;BME280;3040;42.654;23.296;2023-05-24T12:19:15;94018.97;;;31.92;23.46
6024;BME280;3040;42.654;23.296;2023-05-24T12:21:42;94016.81;;;32.02;23.85
6024;BME280;3040;42.654;23.296;2023-05-24T12:24:10;94014.13;;;32.22;22.91
6024;BME280;3040;42.654;23.296;2023-05-24T12:26:40;94005.78;;;31.61;23.15
6024;BME280;3040;42.654;23.296;2023-05-24T12:29:08;94007.03;;;30.33;24.25
6024;BME280;3040;42.654;23.296;2023-05-24T12:31:38;94003.38;;;30.37;24.16
6024;BME280;3040;42.654;23.296;2023-05-24T12:34:06;94003.75;;;30.68;23.63
6024;BME280;3040;42.654;23.296;2023-05-24T12:36:33;93992.59;;;31.16;23.48
6024;BME280;3040;42.654;23.296;2023-05-24T12:39:15;93995.31;;;31.65;22.42
6024;BME280;3040;42.654;23.296;2023-05-24T12:41:43;93985.91;;;30.49;23.64
6024;BME280;3040;42.654;23.296;2023-05-24T12:44:10;93978.94;;;30.92;23.27
6024;BME280;3040;42.654;23.296;2023-05-24T12:46:38;93994.41;;;31.04;22.01
6024;BME280;3040;42.654;23.296;2023-05-24T12:49:05;93996.13;;;31.51;22.15
6024;BME280;3040;42.654;23.296;2023-05-24T12:51:32;93997.91;;;31.89;22.48
6024;BME280;3040;42.654;23.296;2023-05-24T12:53:59;93999.13;;;32.23;21.68
6024;BME280;3040;42.654;23.296;2023-05-24T12:56:29;93978.44;;;32.53;21.05
6024;BME280;3040;42.654;23.296;2023-05-24T12:58:56;93965.97;;;32.38;21.42
6024;BME280;3040;42.654;23.296;2023-05-24T13:01:23;93990.69;;;31.57;22.69
6024;BME280;3040;42.654;23.296;2023-05-24T13:03:52;93879.03;;;30.74;24.06
6024;BME280;3040;42.654;23.296;2023-05-24T13:06:19;93966.53;;;31.61;23.01
6024;BME280;3040;42.654;23.296;2023-05-24T13:08:46;93982.41;;;31.71;23.82
6024;BME280;3040;42.654;23.296;2023-05-24T13:11:13;93985.16;;;31.71;21.61
6024;BME280;3040;42.654;23.296;2023-05-24T13:13:40;93979.84;;;31.82;20.86
6024;BME280;3040;42.654;23.296;2023-05-24T13:16:08;93984.84;;;31.84;22.67